Time;durP1;ratioP1;P1;durP2;ratioP2;P2;SDS_P1;SDS_P2;PMS_P1;PMS_P2;Temp;Humidity;BMP_temperature;BMP_pressure;BME280_temperature;BME280_humidity;BME280_pressure;Samples;Min_cycle;Max_cycle;Signal;HPM_P1;HPM_P2
2022/01/17 08:19:03;;;;;;;123.13;46.38;;;5.30;99.90;;;;;;5107634;27;20385;-84
2022/01/17 08:21:29;;;;;;;140.43;54.97;;;6.20;99.90;;;;;;5082432;28;20040;-83
2022/01/17 08:23:54;;;;;;;124.65;51.92;;;7.40;99.90;;;;;;5061280;28;20176;-81
2022/01/17 08:26:21;;;;;;;121.35;51.42;;;7.40;99.90;;;;;;5086585;28;20067;-82
2022/01/17 08:28:47;;;;;;;115.40;52.22;;;7.10;99.90;;;;;;5085642;28;20024;-82
2022/01/17 08:31:14;;;;;;;120.00;52.90;;;6.70;99.90;;;;;;5085825;28;20020;-82
2022/01/17 08:33:39;;;;;;;125.95;51.88;;;6.50;99.90;;;;;;5068655;28;20024;-82
2022/01/17 08:36:07;;;;;;;130.63;53.15;;;6.30;99.90;;;;;;5087053;28;20044;-82
2022/01/17 08:38:35;;;;;;;124.82;53.65;;;6.20;99.90;;;;;;5068974;28;20052;-81
2022/01/17 08:41:00;;;;;;;131.50;56.50;;;6.20;99.90;;;;;;5085427;28;20029;-81
2022/01/17 08:43:27;;;;;;;129.18;55.28;;;6.20;99.90;;;;;;5085476;28;20025;-81
2022/01/17 08:45:53;;;;;;;123.43;53.55;;;6.20;99.90;;;;;;5068647;28;20028;-81
2022/01/17 08:48:19;;;;;;;117.30;52.05;;;6.30;99.90;;;;;;5085196;28;20046;-81
2022/01/17 08:50:47;;;;;;;133.20;57.50;;;6.30;99.90;;;;;;5064975;28;20276;-81
2022/01/17 08:53:14;;;;;;;132.77;56.72;;;6.30;99.90;;;;;;5081835;28;20028;-81
2022/01/17 08:55:42;;;;;;;121.53;55.20;;;6.40;99.90;;;;;;5074541;28;20066;-81
2022/01/17 08:58:09;;;;;;;128.32;55.60;;;6.50;99.90;;;;;;5091069;28;20028;-82
2022/01/17 09:00:35;;;;;;;118.72;54.53;;;6.60;99.90;;;;;;5085475;28;20101;-82
2022/01/17 09:03:01;;;;;;;122.50;54.67;;;6.60;99.90;;;;;;5091026;28;20057;-81
2022/01/17 09:05:31;;;;;;;109.35;53.75;;;6.60;99.90;;;;;;5073631;28;20039;-81
2022/01/17 09:07:57;;;;;;;111.22;53.55;;;6.70;99.90;;;;;;5091768;28;20028;-83
2022/01/17 09:10:23;;;;;;;98.53;49.30;;;6.70;99.90;;;;;;5096575;28;20028;-82
2022/01/17 09:12:51;;;;;;;106.30;51.72;;;6.70;99.90;;;;;;5085028;28;20546;-82
2022/01/17 09:15:17;;;;;;;94.95;47.10;;;6.70;99.90;;;;;;5077095;28;20537;-82
2022/01/17 09:17:43;;;;;;;100.78;49.83;;;6.80;99.90;;;;;;5071529;28;20071;-82
2022/01/17 09:20:10;;;;;;;93.00;48.25;;;6.80;99.90;;;;;;5067736;28;20039;-82
2022/01/17 09:22:36;;;;;;;90.70;47.17;;;6.80;99.90;;;;;;5103567;28;20032;-82
2022/01/17 09:25:06;;;;;;;89.38;49.15;;;6.80;99.90;;;;;;5105018;28;20070;-82
2022/01/17 09:27:32;;;;;;;83.68;45.67;;;6.80;99.90;;;;;;5095054;28;20123;-82
2022/01/17 09:29:58;;;;;;;92.53;48.65;;;6.80;99.90;;;;;;5073585;28;20028;-81
2022/01/17 09:32:24;;;;;;;93.53;46.85;;;6.80;99.90;;;;;;5071238;28;20183;-82
2022/01/17 09:34:49;;;;;;;96.35;48.67;;;6.90;99.90;;;;;;5054435;28;20085;-82
2022/01/17 09:37:15;;;;;;;87.05;47.70;;;6.80;99.90;;;;;;5050754;28;20477;-82
2022/01/17 09:39:41;;;;;;;84.22;43.28;;;6.90;99.90;;;;;;5052560;28;20280;-82
2022/01/17 09:42:08;;;;;;;81.80;44.00;;;6.90;99.90;;;;;;5051414;28;20048;-82
2022/01/17 09:44:34;;;;;;;94.13;45.70;;;6.90;99.90;;;;;;5037769;28;20082;-82
2022/01/17 09:47:04;;;;;;;83.65;45.00;;;6.90;99.90;;;;;;5071931;28;20055;-81
2022/01/17 09:49:49;;;;;;;73.85;42.70;;;6.90;99.90;;;;;;5071036;28;20857;-82
2022/01/17 09:55:10;;;;;;;73.90;40.38;;;7.00;99.90;;;;;;5072364;28;20153;-82
2022/01/17 09:57:43;;;;;;;71.63;39.38;;;7.00;99.90;;;;;;5070533;28;20483;-82
2022/01/17 10:00:12;;;;;;;80.85;40.72;;;7.00;99.90;;;;;;5071787;28;20029;-82
2022/01/17 10:02:38;;;;;;;71.72;37.72;;;7.10;99.90;;;;;;5069998;28;20036;-82
2022/01/17 10:05:06;;;;;;;73.75;37.80;;;7.10;99.90;;;;;;5053673;28;20497;-82
2022/01/17 10:07:53;;;;;;;65.15;38.03;;;7.10;99.90;;;;;;5070445;28;20037;-82
2022/01/17 10:10:35;;;;;;;70.90;36.95;;;7.10;99.90;;;;;;5070097;28;20024;-82
2022/01/17 10:13:31;;;;;;;71.05;35.78;;;7.10;99.90;;;;;;5071620;28;20082;-82
2022/01/17 10:16:06;;;;;;;62.65;35.05;;;7.10;99.90;;;;;;5067958;28;20094;-82
2022/01/17 10:19:09;;;;;;;64.10;33.35;;;7.10;99.90;;;;;;5069885;28;20135;-82
2022/01/17 10:21:47;;;;;;;63.53;32.83;;;7.20;99.90;;;;;;4992811;28;20034;-82
2022/01/17 10:34:57;;;;;;;53.07;27.77;;;7.30;99.90;;;;;;5063528;28;20419;-82
2022/01/17 10:37:29;;;;;;;52.75;27.63;;;7.30;99.90;;;;;;5054948;28;20397;-82
2022/01/17 10:40:00;;;;;;;47.10;25.42;;;7.30;99.90;;;;;;5068305;28;20060;-82
2022/01/17 10:42:31;;;;;;;50.72;25.90;;;7.30;99.90;;;;;;5089861;28;20107;-82
2022/01/17 10:45:09;;;;;;;48.85;26.13;;;7.30;99.90;;;;;;5078948;28;20086;-82
2022/01/17 10:47:39;;;;;;;58.88;25.85;;;7.30;99.90;;;;;;5068697;28;20040;-82
2022/01/17 10:50:11;;;;;;;45.63;23.88;;;7.30;99.90;;;;;;5052953;28;20033;-82
2022/01/17 10:52:47;;;;;;;50.95;24.65;;;7.30;99.90;;;;;;5068593;28;20056;-81
2022/01/17 10:55:37;;;;;;;49.33;22.92;;;7.40;99.90;;;;;;5070241;28;20024;-82
2022/01/17 10:58:17;;;;;;;47.90;23.20;;;7.40;99.90;;;;;;5069192;28;20556;-82
2022/01/17 11:00:47;;;;;;;53.20;22.80;;;7.40;99.90;;;;;;5089408;28;20024;-81
2022/01/17 11:03:16;;;;;;;46.53;22.40;;;7.40;99.90;;;;;;5084709;28;20097;-81
2022/01/17 11:05:47;;;;;;;51.42;21.25;;;7.40;99.90;;;;;;5082343;28;20024;-82
2022/01/17 11:08:16;;;;;;;44.17;21.23;;;7.40;99.90;;;;;;5087308;28;20169;-82
2022/01/17 11:10:45;;;;;;;43.83;21.05;;;7.40;99.90;;;;;;5068903;28;20020;-82
2022/01/17 11:13:15;;;;;;;42.05;20.75;;;7.40;99.90;;;;;;5081719;28;20036;-82
2022/01/17 11:15:45;;;;;;;45.67;21.38;;;7.40;99.90;;;;;;5068517;28;20032;-81
2022/01/17 11:18:16;;;;;;;;;;;7.40;99.90;;;;;;5054867;28;20075;-82
2022/01/17 11:20:43;;;;;;;44.75;19.23;;;7.40;99.90;;;;;;5052671;28;19916;-82
2022/01/17 11:23:09;;;;;;;47.40;19.55;;;7.40;99.90;;;;;;5074637;28;20032;-82
2022/01/17 11:25:37;;;;;;;41.38;18.52;;;7.40;99.90;;;;;;5071767;28;20040;-81
2022/01/17 11:28:05;;;;;;;39.10;18.13;;;7.40;99.90;;;;;;5073181;28;20044;-82
2022/01/17 11:30:34;;;;;;;39.30;17.88;;;7.40;99.90;;;;;;5068186;28;20504;-82
2022/01/17 11:33:03;;;;;;;39.22;16.88;;;7.50;99.90;;;;;;5056194;28;20076;-82
2022/01/17 11:35:31;;;;;;;47.10;17.25;;;7.50;99.90;;;;;;5069911;28;20031;-82
2022/01/17 11:38:01;;;;;;;42.05;15.50;;;7.50;99.90;;;;;;5088792;28;20061;-82
2022/01/17 11:40:37;;;;;;;35.08;15.38;;;7.50;99.90;;;;;;5084989;28;20032;-82
2022/01/17 11:43:27;;;;;;;40.28;15.88;;;7.50;99.90;;;;;;5069618;28;20025;-82
2022/01/17 11:45:54;;;;;;;45.20;15.80;;;7.50;99.90;;;;;;5073881;28;20659;-82
2022/01/17 11:48:30;;;;;;;35.88;15.73;;;7.50;99.90;;;;;;5051432;28;20067;-82
2022/01/17 11:50:58;;;;;;;39.05;15.57;;;7.50;99.90;;;;;;5086196;28;20355;-80
2022/01/17 11:53:27;;;;;;;40.15;14.95;;;7.50;99.90;;;;;;5077594;28;20060;-83
2022/01/17 11:55:54;;;;;;;44.92;15.48;;;7.50;99.90;;;;;;5076663;28;20385;-83
2022/01/17 11:58:36;;;;;;;40.15;14.98;;;7.50;99.90;;;;;;5078491;28;20131;-83
2022/01/17 12:01:04;;;;;;;41.38;14.48;;;7.50;99.90;;;;;;5087596;28;20036;-83
2022/01/17 12:03:31;;;;;;;45.95;15.02;;;7.50;99.90;;;;;;5085153;28;20473;-83
2022/01/17 12:06:04;;;;;;;40.13;14.52;;;7.50;99.90;;;;;;5105290;28;20535;-83
2022/01/17 12:08:30;;;;;;;40.55;13.95;;;7.50;99.90;;;;;;5054014;28;20402;-83
2022/01/17 12:11:02;;;;;;;38.35;14.25;;;7.50;99.90;;;;;;5048276;28;20104;-83
2022/01/17 12:13:36;;;;;;;33.63;13.27;;;7.50;99.90;;;;;;5078495;28;20035;-83
2022/01/17 12:16:11;;;;;;;39.63;12.88;;;7.60;99.90;;;;;;5057347;28;20093;-84
2022/01/17 12:18:47;;;;;;;46.45;13.63;;;7.60;99.90;;;;;;5068326;28;20067;-83
2022/01/17 12:21:32;;;;;;;37.72;12.27;;;7.60;99.90;;;;;;5069858;28;20029;-83
2022/01/17 12:24:30;;;;;;;35.30;12.80;;;7.60;99.90;;;;;;5064572;28;20587;-83
2022/01/17 12:27:00;;;;;;;44.53;13.27;;;7.70;99.90;;;;;;5056043;28;20493;-83
2022/01/17 12:29:41;;;;;;;33.92;11.45;;;7.70;99.90;;;;;;5069193;28;20028;-83
2022/01/17 12:32:29;;;;;;;34.95;11.77;;;7.70;99.90;;;;;;5067296;28;20107;-83
2022/01/17 12:35:11;;;;;;;36.03;12.00;;;7.70;99.90;;;;;;5051295;28;20041;-83
2022/01/17 12:37:45;;;;;;;35.17;11.30;;;7.70;99.90;;;;;;5067609;28;20048;-84
2022/01/17 12:40:10;;;;;;;44.92;10.48;;;7.80;99.90;;;;;;5067612;28;20024;-83
2022/01/17 12:42:57;;;;;;;33.40;11.15;;;7.80;99.90;;;;;;5069131;28;20353;-83
2022/01/17 12:45:24;;;;;;;28.80;10.85;;;7.80;99.90;;;;;;5067605;28;20062;-83
2022/01/17 12:47:51;;;;;;;39.80;10.98;;;7.80;99.90;;;;;;5067371;28;20037;-83
2022/01/17 12:50:19;;;;;;;39.28;10.80;;;7.80;99.90;;;;;;5068935;28;20017;-83
2022/01/17 12:52:44;;;;;;;37.22;11.00;;;7.70;99.90;;;;;;5067613;28;20408;-83
2022/01/17 12:55:11;;;;;;;36.22;10.73;;;7.70;99.90;;;;;;5067936;28;20025;-83
2022/01/17 12:57:43;;;;;;;31.25;9.45;;;7.70;99.90;;;;;;5047245;28;20033;-83
2022/01/17 13:00:20;;;;;;;44.20;10.55;;;7.70;99.90;;;;;;5055794;28;20370;-83
2022/01/17 13:02:56;;;;;;;31.98;10.95;;;7.70;99.90;;;;;;5070860;28;20114;-83
2022/01/17 13:05:28;;;;;;;41.53;11.82;;;7.70;99.90;;;;;;5072717;28;20120;-84
2022/01/17 13:07:54;;;;;;;39.20;12.05;;;7.70;99.90;;;;;;5071965;28;20496;-82
2022/01/17 13:10:20;;;;;;;43.40;13.38;;;7.70;99.90;;;;;;5050976;28;20088;-82
2022/01/17 13:12:50;;;;;;;40.50;13.77;;;7.70;99.90;;;;;;5057641;28;20024;-83
2022/01/17 13:15:16;;;;;;;38.92;13.25;;;7.80;99.90;;;;;;5070962;28;20044;-83
2022/01/17 13:17:41;;;;;;;32.92;11.25;;;7.80;99.90;;;;;;5053990;28;20048;-83
2022/01/17 13:20:08;;;;;;;44.47;11.38;;;7.80;99.90;;;;;;5070910;28;20044;-82
2022/01/17 13:22:39;;;;;;;40.53;10.60;;;7.80;99.90;;;;;;5054427;28;20036;-82
2022/01/17 13:25:07;;;;;;;44.80;11.70;;;7.90;99.90;;;;;;5063700;28;20080;-82
2022/01/17 13:27:37;;;;;;;36.92;10.02;;;7.90;99.90;;;;;;5073677;28;20028;-82
2022/01/17 13:30:08;;;;;;;47.20;10.15;;;7.90;99.90;;;;;;5063686;28;20032;-82
2022/01/17 13:32:36;;;;;;;37.45;9.75;;;8.00;99.90;;;;;;5059144;28;20029;-82
2022/01/17 13:35:10;;;;;;;38.63;10.23;;;8.00;99.90;;;;;;5052066;28;20409;-82
2022/01/17 13:37:37;;;;;;;34.25;9.15;;;8.10;99.90;;;;;;5067253;28;20473;-82
2022/01/17 13:40:23;;;;;;;36.03;7.90;;;8.10;99.90;;;;;;5050216;28;20045;-83
2022/01/17 13:42:57;;;;;;;39.65;8.05;;;8.10;99.90;;;;;;5050370;28;20063;-82
2022/01/17 13:45:38;;;;;;;34.28;7.80;;;8.20;99.90;;;;;;5063519;28;20064;-82
2022/01/17 13:48:18;;;;;;;33.50;7.82;;;8.20;99.90;;;;;;5051511;28;20060;-82
2022/01/17 13:50:48;;;;;;;32.17;7.18;;;8.20;99.90;;;;;;5068282;28;20060;-82
2022/01/17 13:53:17;;;;;;;46.92;7.60;;;8.20;99.90;;;;;;5050122;28;20071;-83
2022/01/17 13:55:43;;;;;;;;;;;8.20;99.90;;;;;;5061705;28;20039;-83
2022/01/17 13:58:12;;;;;;;37.08;8.05;;;8.30;99.90;;;;;;5083493;28;20233;-82
2022/01/17 14:00:47;;;;;;;40.08;8.23;;;8.30;99.90;;;;;;5072066;28;20032;-82
2022/01/17 14:03:16;;;;;;;43.75;7.90;;;8.30;99.90;;;;;;5070149;28;20028;-82
2022/01/17 14:05:45;;;;;;;27.98;7.00;;;8.30;99.90;;;;;;5070325;28;20036;-82
2022/01/17 14:08:17;;;;;;;40.20;8.07;;;8.30;99.90;;;;;;5070274;28;20059;-83
2022/01/17 14:10:59;;;;;;;33.58;6.45;;;8.30;99.90;;;;;;5082772;28;20371;-82
2022/01/17 14:13:34;;;;;;;38.22;7.07;;;8.40;99.90;;;;;;5051572;28;20025;-83
2022/01/17 14:16:23;;;;;;;40.78;7.75;;;8.40;99.90;;;;;;5051370;28;20108;-82
2022/01/17 14:18:59;;;;;;;34.17;7.00;;;8.40;99.90;;;;;;5066726;28;20120;-82
2022/01/17 14:21:27;;;;;;;45.13;7.43;;;8.40;99.90;;;;;;5051678;28;20645;-82
2022/01/17 14:24:14;;;;;;;30.38;6.57;;;8.40;99.90;;;;;;5051397;28;20025;-82
2022/01/17 14:26:50;;;;;;;34.85;7.22;;;8.40;99.90;;;;;;5066523;28;20429;-83
2022/01/17 14:29:18;;;;;;;35.38;7.80;;;8.40;99.90;;;;;;5066593;28;20437;-82
2022/01/17 14:31:45;;;;;;;39.17;7.57;;;8.50;99.90;;;;;;5066434;28;20031;-82
2022/01/17 14:34:18;;;;;;;38.33;6.32;;;8.40;99.90;;;;;;5066442;28;20370;-82
2022/01/17 14:37:01;;;;;;;45.03;7.60;;;8.40;99.90;;;;;;5051190;28;20025;-82
2022/01/17 14:39:31;;;;;;;40.65;7.00;;;8.50;99.90;;;;;;5073382;28;20058;-82
2022/01/17 14:42:15;;;;;;;55.35;7.32;;;8.40;99.90;;;;;;5069905;28;20457;-82
2022/01/17 14:44:45;;;;;;;36.85;7.00;;;8.50;99.90;;;;;;5069830;28;20028;-82
2022/01/17 14:47:13;;;;;;;34.60;6.22;;;8.50;99.90;;;;;;5067453;28;20040;-82
2022/01/17 14:49:56;;;;;;;36.47;6.95;;;8.50;99.90;;;;;;5048911;28;20036;-82
2022/01/17 14:52:30;;;;;;;35.20;6.57;;;8.50;99.90;;;;;;5050665;28;20030;-82
2022/01/17 15:00:22;;;;;;;47.30;6.97;;;8.50;99.90;;;;;;5070967;28;20040;-82
2022/01/17 15:02:57;;;;;;;41.53;6.05;;;8.50;99.90;;;;;;5069427;28;20031;-78
2022/01/17 15:05:23;;;;;;;34.38;5.85;;;8.50;99.90;;;;;;5050819;28;20492;-78
2022/01/17 15:07:51;;;;;;;26.85;5.38;;;8.50;99.90;;;;;;5049119;28;20044;-78
2022/01/17 15:10:21;;;;;;;40.28;6.68;;;8.50;99.90;;;;;;5049164;28;20470;-78
2022/01/17 15:12:47;;;;;;;36.28;6.35;;;8.50;99.90;;;;;;5050553;28;20091;-78
2022/01/17 15:15:13;;;;;;;39.97;7.05;;;8.50;99.90;;;;;;5049310;28;20477;-78
2022/01/17 15:17:43;;;;;;;35.90;7.75;;;8.50;99.90;;;;;;5048884;28;20052;-78
2022/01/17 15:20:10;;;;;;;47.92;8.25;;;8.50;99.90;;;;;;5050400;28;20063;-78
2022/01/17 15:22:36;;;;;;;54.05;9.05;;;8.50;99.90;;;;;;5065476;28;20021;-78
2022/01/17 15:25:03;;;;;;;39.65;7.22;;;8.50;99.90;;;;;;5080777;28;20363;-78
2022/01/17 15:27:28;;;;;;;36.45;7.53;;;8.50;99.90;;;;;;5071530;28;20033;-78
2022/01/17 15:29:54;;;;;;;44.42;7.50;;;8.60;99.90;;;;;;5061219;28;20392;-77
2022/01/17 15:32:20;;;;;;;37.10;7.53;;;8.60;99.90;;;;;;5090185;28;20024;-77
2022/01/17 15:34:46;;;;;;;39.28;7.38;;;8.60;99.90;;;;;;5065901;28;20017;-77
2022/01/17 15:37:12;;;;;;;48.20;7.43;;;8.60;99.90;;;;;;5090057;28;20119;-77
2022/01/17 15:39:42;;;;;;;41.47;7.50;;;8.60;99.90;;;;;;5081155;28;20028;-77
2022/01/17 15:42:15;;;;;;;41.70;6.90;;;8.50;99.90;;;;;;5052595;28;20405;-77
2022/01/17 15:44:41;;;;;;;32.47;5.70;;;8.50;99.90;;;;;;5053609;28;20431;-78
2022/01/17 15:47:08;;;;;;;42.88;6.63;;;8.40;99.90;;;;;;5056717;28;20033;-77
2022/01/17 15:49:34;;;;;;;34.30;5.85;;;8.40;99.90;;;;;;5071929;28;20016;-77
2022/01/17 15:52:00;;;;;;;35.08;5.57;;;8.30;99.90;;;;;;5087861;28;20036;-78
2022/01/17 15:54:27;;;;;;;41.80;6.40;;;8.30;99.90;;;;;;5054674;28;20059;-78
2022/01/17 15:56:55;;;;;;;41.67;6.07;;;8.20;99.90;;;;;;5068109;28;20028;-78
2022/01/17 15:59:23;;;;;;;38.90;6.67;;;8.20;99.90;;;;;;5072575;28;20085;-78
2022/01/17 16:01:49;;;;;;;36.10;6.30;;;8.20;99.90;;;;;;5071166;28;20066;-78
2022/01/17 16:04:15;;;;;;;33.67;5.47;;;8.10;99.90;;;;;;5058923;28;20030;-78
2022/01/17 16:06:40;;;;;;;44.30;6.63;;;8.10;99.90;;;;;;5052132;28;20552;-78
2022/01/17 16:09:06;;;;;;;39.20;6.57;;;8.10;99.90;;;;;;5071982;28;20377;-78
2022/01/17 16:11:37;;;;;;;38.65;7.07;;;8.10;99.90;;;;;;5082497;28;20089;-78
2022/01/17 16:14:08;;;;;;;36.95;6.25;;;8.00;99.90;;;;;;5088150;28;20097;-78
2022/01/17 16:16:35;;;;;;;40.40;7.25;;;8.00;99.90;;;;;;5080912;28;20524;-78
2022/01/17 16:19:02;;;;;;;35.58;5.85;;;8.00;99.90;;;;;;5071554;28;20447;-78
2022/01/17 16:21:27;;;;;;;35.60;6.05;;;7.90;99.90;;;;;;5076880;28;20024;-80
2022/01/17 16:23:54;;;;;;;38.67;6.13;;;7.90;99.90;;;;;;5079259;28;20060;-80
2022/01/17 16:26:20;;;;;;;46.17;7.13;;;7.80;99.90;;;;;;5080287;28;20048;-80
2022/01/17 16:28:46;;;;;;;45.28;7.38;;;7.80;99.90;;;;;;5058150;28;20048;-80
2022/01/17 16:31:13;;;;;;;41.45;7.00;;;7.90;99.90;;;;;;5067809;28;20082;-80
2022/01/17 16:33:39;;;;;;;41.67;7.32;;;7.90;99.90;;;;;;5070297;28;20116;-80
2022/01/17 16:36:06;;;;;;;37.70;6.97;;;7.90;99.90;;;;;;5050698;28;20021;-80
2022/01/17 16:38:34;;;;;;;41.72;6.93;;;7.90;99.90;;;;;;5061134;28;20033;-80
2022/01/17 16:41:01;;;;;;;46.72;8.23;;;7.90;99.90;;;;;;5072008;28;20773;-80
2022/01/17 16:43:27;;;;;;;43.13;7.40;;;7.90;99.90;;;;;;5071355;28;20590;-80
2022/01/17 16:45:53;;;;;;;40.10;6.43;;;8.00;99.90;;;;;;5071729;28;20041;-80
2022/01/17 16:48:20;;;;;;;39.90;7.63;;;7.90;99.90;;;;;;5080047;28;20573;-80
2022/01/17 16:50:46;;;;;;;35.05;6.65;;;8.00;99.90;;;;;;5074068;28;20127;-80
2022/01/17 16:53:12;;;;;;;39.78;7.30;;;8.00;99.90;;;;;;5083099;28;20473;-80
2022/01/17 16:55:38;;;;;;;38.50;6.93;;;8.00;99.90;;;;;;5087897;28;20085;-80
2022/01/17 16:58:04;;;;;;;45.22;7.45;;;8.10;99.90;;;;;;5062275;28;20029;-80
2022/01/17 17:00:31;;;;;;;35.38;6.68;;;8.10;99.90;;;;;;5058830;28;20028;-80
2022/01/17 17:02:56;;;;;;;35.30;6.07;;;8.00;99.90;;;;;;5080670;28;20043;-80
2022/01/17 17:05:22;;;;;;;31.30;6.75;;;8.10;99.90;;;;;;5074044;28;20397;-80
2022/01/17 17:07:48;;;;;;;39.33;7.47;;;8.10;99.90;;;;;;5062851;28;20031;-81
2022/01/17 17:10:13;;;;;;;45.28;7.53;;;8.10;99.90;;;;;;5081999;28;20553;-81
2022/01/17 17:12:39;;;;;;;47.58;7.35;;;8.10;99.90;;;;;;5087052;28;20029;-80
2022/01/17 17:15:07;;;;;;;47.50;6.88;;;8.10;99.90;;;;;;5071044;28;20055;-80
2022/01/17 17:17:33;;;;;;;47.45;7.25;;;8.10;99.90;;;;;;5071072;28;20037;-80
2022/01/17 17:19:58;;;;;;;49.92;6.50;;;8.10;99.90;;;;;;5072024;28;20059;-80
2022/01/17 17:22:24;;;;;;;32.50;6.40;;;8.10;99.90;;;;;;5061010;28;20407;-80
2022/01/17 17:24:53;;;;;;;40.75;6.18;;;8.10;99.90;;;;;;5074467;28;20024;-81
2022/01/17 17:27:19;;;;;;;45.03;6.18;;;8.10;99.90;;;;;;5078214;28;20405;-81
2022/01/17 17:29:46;;;;;;;27.83;5.85;;;8.10;99.90;;;;;;5050671;28;20036;-81
2022/01/17 17:32:12;;;;;;;33.28;5.82;;;8.10;99.90;;;;;;5071169;28;20480;-80
2022/01/17 17:34:37;;;;;;;43.05;6.03;;;8.10;99.90;;;;;;5069054;28;20085;-80
2022/01/17 17:37:03;;;;;;;45.42;6.53;;;8.10;99.90;;;;;;5060547;28;20066;-80
2022/01/17 17:39:29;;;;;;;33.60;5.97;;;8.10;99.90;;;;;;5090998;28;20161;-80
2022/01/17 17:41:55;;;;;;;49.15;6.50;;;8.10;99.90;;;;;;5082776;28;20494;-80
2022/01/17 17:44:21;;;;;;;37.25;6.25;;;8.10;99.90;;;;;;5071677;28;20170;-80
2022/01/17 17:46:47;;;;;;;38.40;6.50;;;8.10;99.90;;;;;;5070116;28;20119;-80
2022/01/17 17:49:13;;;;;;;39.55;5.50;;;8.10;99.90;;;;;;5081231;28;20161;-80
2022/01/17 17:51:42;;;;;;;40.67;6.38;;;8.10;99.90;;;;;;5081173;28;20402;-80
2022/01/17 17:54:08;;;;;;;;;;;8.00;99.90;;;;;;5073271;28;20020;-80
2022/01/17 17:56:34;;;;;;;43.90;6.13;;;8.10;99.90;;;;;;5070763;28;19986;-80
2022/01/17 17:59:01;;;;;;;43.78;5.88;;;8.10;99.90;;;;;;5055360;28;20388;-80
2022/01/17 18:01:28;;;;;;;45.08;5.55;;;8.00;99.90;;;;;;5078954;28;20021;-81
2022/01/17 18:03:54;;;;;;;42.92;6.65;;;8.00;99.90;;;;;;5078084;28;20028;-80
2022/01/17 18:06:19;;;;;;;53.20;8.15;;;8.00;99.90;;;;;;5068269;28;20134;-80
2022/01/17 18:08:46;;;;;;;47.22;7.72;;;8.00;99.90;;;;;;5090003;28;20036;-80
2022/01/17 18:11:12;;;;;;;45.72;8.55;;;8.00;99.90;;;;;;5086978;28;20195;-80
2022/01/17 18:13:38;;;;;;;45.55;10.73;;;8.00;99.90;;;;;;5086527;28;20028;-81
2022/01/17 18:16:04;;;;;;;41.78;7.55;;;8.00;99.90;;;;;;5081831;28;20035;-79
2022/01/17 18:18:32;;;;;;;50.15;7.40;;;8.00;99.90;;;;;;5079220;28;20048;-80
2022/01/17 18:20:59;;;;;;;48.75;8.00;;;8.00;99.90;;;;;;5081653;28;20040;-80
2022/01/17 18:23:25;;;;;;;39.38;6.47;;;8.00;99.90;;;;;;5078451;28;20528;-80
2022/01/17 18:25:53;;;;;;;48.55;9.32;;;8.10;99.90;;;;;;5081896;28;20182;-80
2022/01/17 18:28:19;;;;;;;46.97;9.88;;;8.00;99.90;;;;;;5080327;28;20032;-80
2022/01/17 18:30:46;;;;;;;48.10;7.35;;;8.10;99.90;;;;;;5087446;28;20032;-80
2022/01/17 18:33:12;;;;;;;46.58;7.30;;;8.10;99.90;;;;;;5070012;28;20028;-80
2022/01/17 18:35:38;;;;;;;42.38;7.85;;;8.10;99.90;;;;;;5074798;28;20029;-80
2022/01/17 18:38:03;;;;;;;39.75;7.32;;;8.10;99.90;;;;;;5059145;28;20039;-80
2022/01/17 18:40:29;;;;;;;47.40;6.80;;;8.00;99.90;;;;;;5071658;28;20076;-80
2022/01/17 18:42:55;;;;;;;48.10;7.57;;;8.00;99.90;;;;;;5080510;28;20408;-79
2022/01/17 18:45:20;;;;;;;49.40;7.25;;;8.00;99.90;;;;;;5071368;28;20036;-79
2022/01/17 18:47:46;;;;;;;43.80;6.95;;;8.00;99.90;;;;;;5059587;28;20060;-79
2022/01/17 18:50:13;;;;;;;39.53;7.35;;;8.00;99.90;;;;;;5069205;28;20534;-79
2022/01/17 18:52:40;;;;;;;42.70;7.03;;;8.00;99.90;;;;;;5075358;28;20032;-79
2022/01/17 18:55:08;;;;;;;47.53;7.95;;;8.00;99.90;;;;;;5071032;28;20508;-79
2022/01/17 18:57:33;;;;;;;36.72;6.50;;;8.00;99.90;;;;;;5078917;28;20032;-79
2022/01/17 19:00:01;;;;;;;40.42;7.35;;;8.00;99.90;;;;;;5082987;28;20036;-79
2022/01/17 19:02:27;;;;;;;38.90;6.47;;;8.10;99.90;;;;;;5076321;28;20040;-79
2022/01/17 19:04:54;;;;;;;37.83;6.57;;;8.10;99.90;;;;;;5080724;28;20085;-79
2022/01/17 19:07:20;;;;;;;41.13;7.55;;;8.10;99.90;;;;;;5081177;28;20036;-80
2022/01/17 19:09:45;;;;;;;50.10;8.85;;;8.10;99.90;;;;;;5056286;28;20029;-80
2022/01/17 19:12:13;;;;;;;55.30;8.20;;;8.10;99.90;;;;;;5062761;28;20040;-80
2022/01/17 19:14:39;;;;;;;48.88;10.57;;;8.10;99.90;;;;;;5061512;28;20028;-79
2022/01/17 19:17:09;;;;;;;35.85;7.57;;;8.00;99.90;;;;;;5058737;28;20062;-80
2022/01/17 19:22:21;;;;;;;40.60;7.28;;;8.00;99.90;;;;;;5070580;28;20054;-80
2022/01/17 19:24:47;;;;;;;40.83;8.45;;;8.00;99.90;;;;;;5064844;28;20036;-81
2022/01/17 19:27:14;;;;;;;46.00;7.75;;;8.10;99.90;;;;;;5073147;28;20033;-80
2022/01/17 19:29:40;;;;;;;47.00;7.70;;;8.00;99.90;;;;;;5074395;28;20024;-80
2022/01/17 19:32:06;;;;;;;45.28;7.88;;;8.00;99.90;;;;;;5067122;28;20024;-80
2022/01/17 19:34:32;;;;;;;37.92;7.50;;;8.10;99.90;;;;;;5064565;28;20102;-80
2022/01/17 19:36:58;;;;;;;47.40;8.02;;;8.00;99.90;;;;;;5074093;28;20132;-80
2022/01/17 19:39:24;;;;;;;47.60;7.90;;;8.00;99.90;;;;;;5062255;28;20115;-80
2022/01/17 19:41:49;;;;;;;33.35;7.43;;;8.00;99.90;;;;;;5070925;28;20473;-79
2022/01/17 19:44:16;;;;;;;43.63;7.25;;;8.00;99.90;;;;;;5056672;28;20037;-81
2022/01/17 19:46:41;;;;;;;45.10;7.13;;;8.00;99.90;;;;;;5080472;28;20036;-80
2022/01/17 19:49:07;;;;;;;41.58;7.05;;;8.00;99.90;;;;;;5066224;28;20051;-79
2022/01/17 19:51:35;;;;;;;34.95;6.28;;;8.00;99.90;;;;;;5067993;28;20143;-80
2022/01/17 19:54:02;;;;;;;45.67;6.85;;;8.00;99.90;;;;;;5073775;28;20493;-79
2022/01/17 19:56:27;;;;;;;33.90;6.22;;;8.00;99.90;;;;;;5077433;28;20024;-81
2022/01/17 19:58:59;;;;;;;46.40;6.68;;;8.00;99.90;;;;;;5079324;28;20047;-80
2022/01/17 20:01:24;;;;;;;46.35;6.47;;;8.00;99.90;;;;;;5065075;28;20039;-81
2022/01/17 20:03:50;;;;;;;49.85;9.48;;;8.00;99.90;;;;;;5069732;28;20111;-81
2022/01/17 20:06:16;;;;;;;44.45;7.85;;;8.00;99.90;;;;;;5062559;28;20041;-80
2022/01/17 20:08:42;;;;;;;49.65;8.63;;;8.00;99.90;;;;;;5061126;28;20361;-81
2022/01/17 20:11:07;;;;;;;41.97;7.35;;;8.00;99.90;;;;;;5055119;28;20033;-81
2022/01/17 20:13:35;;;;;;;44.85;8.63;;;8.10;99.90;;;;;;5060987;28;20028;-80
2022/01/17 20:16:01;;;;;;;50.58;8.55;;;8.10;99.90;;;;;;5083177;28;20036;-78
2022/01/17 20:18:27;;;;;;;42.42;8.23;;;8.10;99.90;;;;;;5069510;28;20098;-79
2022/01/17 20:20:53;;;;;;;41.65;8.38;;;8.10;99.90;;;;;;5076973;28;20489;-79
2022/01/17 20:23:19;;;;;;;54.03;9.00;;;8.10;99.90;;;;;;5073305;28;20408;-79
2022/01/17 20:25:45;;;;;;;47.97;8.57;;;8.10;99.90;;;;;;5080808;28;20040;-79
2022/01/17 20:28:12;;;;;;;44.50;7.50;;;8.10;99.90;;;;;;5060281;28;20542;-79
2022/01/17 20:30:39;;;;;;;50.10;7.78;;;8.10;99.90;;;;;;5077593;28;20402;-78
2022/01/17 20:33:08;;;;;;;47.22;8.52;;;8.10;99.90;;;;;;5070607;28;20433;-80
2022/01/17 20:35:35;;;;;;;44.35;8.35;;;8.10;99.90;;;;;;5090468;28;20489;-80
2022/01/17 20:38:00;;;;;;;45.88;7.78;;;8.10;99.90;;;;;;5070027;28;20079;-80
2022/01/17 20:40:26;;;;;;;43.28;8.00;;;8.10;99.90;;;;;;5071388;28;20059;-80
2022/01/17 20:42:52;;;;;;;41.22;7.22;;;8.10;99.90;;;;;;5073085;28;20036;-80
2022/01/17 20:45:19;;;;;;;40.83;7.28;;;8.10;99.90;;;;;;5090047;28;20107;-79
2022/01/17 20:47:45;;;;;;;50.42;7.82;;;8.00;99.90;;;;;;5070392;28;20070;-80
2022/01/17 20:50:12;;;;;;;40.45;7.50;;;8.00;99.90;;;;;;5046601;28;20500;-80
2022/01/17 20:52:37;;;;;;;45.17;7.63;;;8.00;99.90;;;;;;5061726;28;20051;-80
2022/01/17 20:55:04;;;;;;;43.70;6.75;;;8.00;99.90;;;;;;5068212;28;20021;-80
2022/01/17 20:57:30;;;;;;;45.25;8.07;;;8.10;99.90;;;;;;5066362;28;20036;-80
2022/01/17 20:59:58;;;;;;;38.55;6.78;;;8.00;99.90;;;;;;5067128;28;20040;-80
2022/01/17 21:02:23;;;;;;;42.90;6.95;;;8.10;99.90;;;;;;5060545;28;20035;-80
2022/01/17 21:04:51;;;;;;;48.15;7.57;;;8.10;99.90;;;;;;5052451;28;20036;-80
2022/01/17 21:07:17;;;;;;;46.30;7.53;;;8.00;99.90;;;;;;5072108;28;20059;-80
2022/01/17 21:09:43;;;;;;;47.45;7.88;;;8.00;99.90;;;;;;5068077;28;20107;-80
2022/01/17 21:12:09;;;;;;;52.97;8.27;;;8.00;99.90;;;;;;5075571;28;20614;-80
2022/01/17 21:14:35;;;;;;;48.33;7.78;;;8.00;99.90;;;;;;5078704;28;20031;-81
2022/01/17 21:17:03;;;;;;;50.33;8.00;;;8.00;99.90;;;;;;5076181;28;20410;-80
2022/01/17 21:19:32;;;;;;;50.97;8.70;;;8.00;99.90;;;;;;5076024;28;20055;-80
2022/01/17 21:21:58;;;;;;;45.78;8.18;;;8.00;99.90;;;;;;5077043;28;20035;-79
2022/01/17 21:24:23;;;;;;;49.33;9.07;;;8.00;99.90;;;;;;5073336;28;20024;-79
2022/01/17 21:26:49;;;;;;;50.55;8.80;;;8.00;99.90;;;;;;5057283;28;20035;-80
2022/01/17 21:29:14;;;;;;;46.05;7.90;;;8.00;99.90;;;;;;5075919;28;20035;-79
2022/01/17 21:31:42;;;;;;;45.10;8.43;;;8.00;99.90;;;;;;5080549;28;20036;-79